createdAt,value
2018-05-17T00:01:36.517Z,79.33
2018-05-17T00:04:04.118Z,78.78
2018-05-17T00:06:31.780Z,79.33
2018-05-17T00:08:59.392Z,80.12
2018-05-17T00:11:27.023Z,80.22
2018-05-17T00:13:54.638Z,80.18
2018-05-17T00:16:22.235Z,80.94
2018-05-17T00:18:49.866Z,81.15
2018-05-17T00:21:17.466Z,81.48
2018-05-17T00:23:45.210Z,81.44
2018-05-17T00:26:12.818Z,80.48
2018-05-17T00:28:40.410Z,79.66
2018-05-17T00:31:08.071Z,80.07
2018-05-17T00:33:35.667Z,80.60
2018-05-17T00:36:03.330Z,80.46
2018-05-17T00:38:30.911Z,80.82
2018-05-17T00:40:58.760Z,80.87
2018-05-17T00:43:26.350Z,80.83
2018-05-17T00:45:53.948Z,81.24
2018-05-17T00:48:21.612Z,81.20
2018-05-17T00:50:49.187Z,81.52
2018-05-17T00:53:28.466Z,81.65
2018-05-17T00:55:56.067Z,81.45
2018-05-17T00:58:23.718Z,81.75
2018-05-17T01:00:51.312Z,80.79
2018-05-17T01:03:18.909Z,81.17
2018-05-17T01:05:46.528Z,81.26
2018-05-17T01:08:14.123Z,81.10
2018-05-17T01:10:41.750Z,80.75
2018-05-17T01:13:09.365Z,80.37
2018-05-17T01:15:37.016Z,81.04
2018-05-17T01:18:04.618Z,80.68
2018-05-17T01:20:32.213Z,79.69
2018-05-17T01:23:00.706Z,79.99
2018-05-17T01:25:28.351Z,79.80
2018-05-17T01:27:55.991Z,81.07
2018-05-17T01:30:23.583Z,81.08
2018-05-17T01:32:51.186Z,81.48
2018-05-17T01:35:18.807Z,81.76
2018-05-17T01:37:58.221Z,81.80
2018-05-17T01:40:25.870Z,82.02
2018-05-17T01:42:53.467Z,82.45
2018-05-17T01:45:21.062Z,82.42
2018-05-17T01:47:48.703Z,82.65
2018-05-17T01:50:16.303Z,83.20
2018-05-17T01:52:43.926Z,83.60
2018-05-17T01:55:11.520Z,83.24
2018-05-17T01:57:39.425Z,83.82
2018-05-17T02:00:07.042Z,84.06
2018-05-17T02:02:34.690Z,84.04
2018-05-17T02:05:02.308Z,84.31
2018-05-17T02:07:29.913Z,83.86
2018-05-17T02:09:57.542Z,84.01
2018-05-17T02:12:25.160Z,84.46
2018-05-17T02:14:52.962Z,83.75
2018-05-17T02:17:20.559Z,83.21
2018-05-17T02:19:48.172Z,84.01
2018-05-17T02:22:15.860Z,84.01
2018-05-17T02:24:43.466Z,84.57
2018-05-17T02:27:11.087Z,84.04
2018-05-17T02:29:38.682Z,84.02
2018-05-17T02:32:06.460Z,84.12
2018-05-17T02:34:34.094Z,84.07
2018-05-17T02:37:01.695Z,83.49
2018-05-17T02:39:29.344Z,84.20
2018-05-17T02:41:56.947Z,84.60
2018-05-17T02:44:24.581Z,84.85
2018-05-17T02:46:52.481Z,84.38
2018-05-17T02:49:20.148Z,84.47
2018-05-17T02:51:47.760Z,84.07
2018-05-17T02:54:15.380Z,83.86
2018-05-17T02:56:43.007Z,83.97
2018-05-17T02:59:10.632Z,84.18
2018-05-17T03:01:38.251Z,84.85
2018-05-17T03:04:05.857Z,85.08
2018-05-17T03:06:33.596Z,85.52
2018-05-17T03:09:01.195Z,85.59
2018-05-17T03:11:28.817Z,85.10
2018-05-17T03:13:56.465Z,85.18
2018-05-17T03:16:24.071Z,84.96
2018-05-17T03:18:51.712Z,84.84
2018-05-17T03:21:19.324Z,85.29
2018-05-17T03:23:47.343Z,84.94
2018-05-17T03:26:14.942Z,84.95
2018-05-17T03:28:42.544Z,84.75
2018-05-17T03:31:10.178Z,84.84
2018-05-17T03:33:37.791Z,84.15
2018-05-17T03:36:05.415Z,84.75
2018-05-17T03:38:33.034Z,85.51
2018-05-17T03:41:00.856Z,85.48
2018-05-17T03:43:28.464Z,85.80
2018-05-17T03:45:56.075Z,84.67
2018-05-17T03:48:23.703Z,85.00
2018-05-17T03:50:51.405Z,84.77
2018-05-17T03:53:19.063Z,84.80
2018-05-17T03:55:46.678Z,85.33
2018-05-17T03:58:14.279Z,85.22
2018-05-17T04:00:53.723Z,85.19
2018-05-17T04:03:33.146Z,85.34
2018-05-17T04:06:12.458Z,85.10
2018-05-17T04:08:40.138Z,84.71
2018-05-17T04:11:07.880Z,84.66
2018-05-17T04:13:35.499Z,84.71
2018-05-17T04:16:03.262Z,85.51
2018-05-17T04:18:30.892Z,87.08
2018-05-17T04:20:58.506Z,86.03
2018-05-17T04:23:26.139Z,86.34
2018-05-17T04:25:53.741Z,86.97
2018-05-17T04:28:21.373Z,87.59
2018-05-17T04:30:48.988Z,88.22
2018-05-17T04:33:16.791Z,88.06
2018-05-17T04:35:44.398Z,88.34
2018-05-17T04:38:12.000Z,89.00
2018-05-17T04:40:39.661Z,89.48
2018-05-17T04:43:07.275Z,89.72
2018-05-17T04:45:34.907Z,89.97
2018-05-17T04:48:02.542Z,90.05
2018-05-17T04:50:30.531Z,89.54
2018-05-17T04:52:58.200Z,89.78
2018-05-17T04:55:25.814Z,89.00
2018-05-17T04:57:53.446Z,89.37
2018-05-17T05:00:21.055Z,89.83
2018-05-17T05:02:48.725Z,90.14
2018-05-17T05:05:16.310Z,90.07
2018-05-17T05:07:44.070Z,89.82
2018-05-17T05:10:11.720Z,89.29
2018-05-17T05:12:39.325Z,89.47
2018-05-17T05:15:06.968Z,89.70
2018-05-17T05:17:34.566Z,88.76
2018-05-17T05:20:02.198Z,88.64
2018-05-17T05:22:29.823Z,88.13
2018-05-17T05:24:57.469Z,88.31
2018-05-17T05:27:25.082Z,87.66
2018-05-17T05:29:53.672Z,88.81
2018-05-17T05:32:21.330Z,88.29
2018-05-17T05:34:48.962Z,88.07
2018-05-17T05:37:16.747Z,88.53
2018-05-17T05:39:44.357Z,87.64
2018-05-17T05:42:12.224Z,87.23
2018-05-17T05:44:39.831Z,86.83
2018-05-17T05:47:07.449Z,86.67
2018-05-17T05:49:35.179Z,86.98
2018-05-17T05:52:02.768Z,87.69
2018-05-17T05:54:30.433Z,88.66
2018-05-17T05:56:58.040Z,87.94
2018-05-17T05:59:26.019Z,87.18
2018-05-17T06:01:53.630Z,86.87
2018-05-17T06:04:21.235Z,86.71
2018-05-17T06:06:48.870Z,86.87
2018-05-17T06:09:16.501Z,86.45
2018-05-17T06:11:44.179Z,86.79
2018-05-17T06:14:11.784Z,86.35
2018-05-17T06:16:39.456Z,86.80
2018-05-17T06:19:07.070Z,86.90
2018-05-17T06:21:34.682Z,86.69
2018-05-17T06:24:02.303Z,86.71
2018-05-17T06:26:29.907Z,86.19
2018-05-17T06:28:57.552Z,85.02
2018-05-17T06:31:25.187Z,86.01
2018-05-17T06:33:53.076Z,85.43
2018-05-17T06:36:20.733Z,85.05
2018-05-17T06:38:48.351Z,84.65
2018-05-17T06:41:15.976Z,84.57
2018-05-17T06:43:43.577Z,85.41
2018-05-17T06:46:11.218Z,84.24
2018-05-17T06:48:38.830Z,84.62
2018-05-17T06:51:06.491Z,84.37
2018-05-17T06:53:34.171Z,83.88
2018-05-17T06:56:01.742Z,84.68
2018-05-17T06:58:29.460Z,83.65
2018-05-17T07:00:57.093Z,83.58
2018-05-17T07:03:24.715Z,83.33
2018-05-17T07:05:52.319Z,83.04
2018-05-17T07:08:19.972Z,83.05
2018-05-17T07:10:47.581Z,83.71
2018-05-17T07:13:15.198Z,82.97
2018-05-17T07:15:42.939Z,83.61
2018-05-17T07:18:10.700Z,83.34
2018-05-17T07:20:38.199Z,83.60
2018-05-17T07:23:05.799Z,83.63
2018-05-17T07:25:33.591Z,83.15
2018-05-17T07:28:01.198Z,83.60
2018-05-17T07:30:28.809Z,83.31
2018-05-17T07:32:56.451Z,83.58
2018-05-17T07:35:24.071Z,84.04
2018-05-17T07:37:51.695Z,83.71
2018-05-17T07:40:19.360Z,84.73
2018-05-17T07:42:47.331Z,84.49
2018-05-17T07:45:14.931Z,84.60
2018-05-17T07:47:42.536Z,85.03
2018-05-17T07:50:10.169Z,85.39
2018-05-17T07:52:37.773Z,85.22
2018-05-17T07:55:05.443Z,85.39
2018-05-17T07:57:33.103Z,85.38
2018-05-17T08:00:00.716Z,85.00
2018-05-17T08:02:28.653Z,84.17
2018-05-17T08:04:56.250Z,84.48
2018-05-17T08:07:24.066Z,83.84
2018-05-17T08:09:51.671Z,83.94
2018-05-17T08:12:19.286Z,83.48
2018-05-17T08:14:46.913Z,83.68
2018-05-17T08:17:14.510Z,83.85
2018-05-17T08:19:42.279Z,83.21
2018-05-17T08:22:09.900Z,83.86
2018-05-17T08:24:37.548Z,83.35
2018-05-17T08:27:05.171Z,83.44
2018-05-17T08:29:32.793Z,83.51
2018-05-17T08:32:00.423Z,83.73
2018-05-17T08:34:28.051Z,84.09
2018-05-17T08:36:56.579Z,83.97
2018-05-17T08:39:24.185Z,83.45
2018-05-17T08:41:52.059Z,83.58
2018-05-17T08:44:19.623Z,83.52
2018-05-17T08:46:47.222Z,82.96
2018-05-17T08:49:14.847Z,82.29
2018-05-17T08:51:42.445Z,82.29
2018-05-17T08:54:10.088Z,82.78
2018-05-17T08:56:37.700Z,82.14
2018-05-17T08:59:05.678Z,82.48
2018-05-17T09:01:33.291Z,81.40
2018-05-17T09:04:00.895Z,81.56
2018-05-17T09:06:28.540Z,81.26
2018-05-17T09:08:56.147Z,81.42
2018-05-17T09:11:23.777Z,81.39
2018-05-17T09:13:51.402Z,80.89
2018-05-17T09:16:19.524Z,80.11
2018-05-17T09:18:47.155Z,79.99
2018-05-17T09:21:14.777Z,80.16
2018-05-17T09:23:42.397Z,79.68
2018-05-17T09:26:10.190Z,79.01
2018-05-17T09:28:37.924Z,78.06
2018-05-17T09:31:05.531Z,78.68
2018-05-17T09:33:33.349Z,78.21
2018-05-17T09:36:00.965Z,77.19
2018-05-17T09:38:28.578Z,76.01
2018-05-17T09:40:56.283Z,77.02
2018-05-17T09:43:23.844Z,77.60
2018-05-17T09:45:51.479Z,77.72
2018-05-17T09:48:19.161Z,77.18
2018-05-17T09:50:46.926Z,77.75
2018-05-17T09:53:14.689Z,77.39
2018-05-17T09:55:42.457Z,77.28
2018-05-17T09:58:10.078Z,76.52
2018-05-17T10:00:43.278Z,76.32
2018-05-17T10:03:10.911Z,75.74
2018-05-17T10:05:38.507Z,75.55
2018-05-17T10:08:06.497Z,74.85
2018-05-17T10:10:34.820Z,75.39
2018-05-17T10:13:03.034Z,75.34
2018-05-17T10:18:04.473Z,75.64
2018-05-17T10:20:32.114Z,74.87
2018-05-17T10:22:59.864Z,75.35
2018-05-17T10:25:27.513Z,74.55
2018-05-17T10:27:55.127Z,75.29
2018-05-17T10:30:22.727Z,75.72
2018-05-17T10:32:50.363Z,76.15
2018-05-17T10:35:17.993Z,76.60
2018-05-17T10:37:45.615Z,76.98
2018-05-17T10:40:14.993Z,76.63
2018-05-17T10:42:43.402Z,76.52
2018-05-17T10:45:11.180Z,76.45
2018-05-17T10:47:38.794Z,76.02
2018-05-17T10:50:06.418Z,76.30
2018-05-17T10:52:34.019Z,75.60
2018-05-17T10:55:01.642Z,75.43
2018-05-17T10:57:36.375Z,75.43
2018-05-17T11:00:04.786Z,74.98
2018-05-17T11:02:32.454Z,74.57
2018-05-17T11:05:00.027Z,75.04
2018-05-17T11:07:27.644Z,75.02
2018-05-17T11:09:55.243Z,74.80
2018-05-17T11:12:22.871Z,75.17
2018-05-17T11:14:50.479Z,74.43
2018-05-17T11:17:18.148Z,74.04
2018-05-17T11:19:45.750Z,73.91
2018-05-17T11:22:13.387Z,72.87
2018-05-17T11:24:41.029Z,72.46
2018-05-17T11:27:08.655Z,71.88
2018-05-17T11:29:36.305Z,71.56
2018-05-17T11:32:03.903Z,70.92
2018-05-17T11:34:31.508Z,71.17
2018-05-17T11:36:59.153Z,71.45
2018-05-17T11:39:26.762Z,70.91
2018-05-17T11:41:54.407Z,71.40
2018-05-17T11:44:22.015Z,72.08
2018-05-17T11:46:49.620Z,71.95
2018-05-17T11:49:17.253Z,72.09
2018-05-17T11:51:44.915Z,71.96
2018-05-17T11:54:12.543Z,70.11
2018-05-17T11:56:40.163Z,68.83
2018-05-17T11:59:08.211Z,68.51
2018-05-17T12:01:35.825Z,69.12
2018-05-17T12:04:03.438Z,68.50
2018-05-17T12:06:31.303Z,67.38
2018-05-17T12:08:58.928Z,66.12
2018-05-17T12:11:26.566Z,67.04
2018-05-17T12:13:54.174Z,67.18
2018-05-17T12:16:21.912Z,67.89
2018-05-17T12:18:49.515Z,67.17
2018-05-17T12:21:17.131Z,66.39
2018-05-17T12:23:44.877Z,66.05
2018-05-17T12:26:12.482Z,65.91
2018-05-17T12:28:40.110Z,66.56
2018-05-17T12:31:07.706Z,66.31
2018-05-17T12:33:35.349Z,66.54
2018-05-17T12:36:03.415Z,66.28
2018-05-17T12:38:31.030Z,66.11
2018-05-17T12:40:58.657Z,66.76
2018-05-17T12:43:26.267Z,67.28
2018-05-17T12:45:54.305Z,66.19
2018-05-17T12:48:21.910Z,65.61
2018-05-17T12:50:49.802Z,65.44
2018-05-17T12:53:17.476Z,65.45
2018-05-17T12:55:45.097Z,64.09
2018-05-17T12:58:12.717Z,63.80
2018-05-17T13:00:40.317Z,63.64
2018-05-17T13:03:08.262Z,64.21
2018-05-17T13:05:35.857Z,63.24
2018-05-17T13:08:03.641Z,62.80
2018-05-17T13:10:31.253Z,62.19
2018-05-17T13:12:58.873Z,62.50
2018-05-17T13:15:26.527Z,63.00
2018-05-17T13:17:54.134Z,60.77
2018-05-17T13:20:21.759Z,60.81
2018-05-17T13:22:49.370Z,61.13
2018-05-17T13:25:17.040Z,61.79
2018-05-17T13:27:44.642Z,61.73
2018-05-17T13:30:12.266Z,61.00
2018-05-17T13:32:39.894Z,61.51
2018-05-17T13:35:07.515Z,61.01
2018-05-17T13:37:35.474Z,61.10
2018-05-17T13:40:03.012Z,61.58
2018-05-17T13:42:30.863Z,61.75
2018-05-17T13:44:58.457Z,63.29
2018-05-17T13:47:26.094Z,66.11
2018-05-17T13:49:53.713Z,67.45
2018-05-17T13:52:21.307Z,66.62
2018-05-17T13:54:48.933Z,67.01
2018-05-17T13:57:16.546Z,66.47
2018-05-17T13:59:44.717Z,64.61
2018-05-17T14:02:12.377Z,64.54
2018-05-17T14:04:39.935Z,64.83
2018-05-17T14:07:07.559Z,65.02
2018-05-17T14:09:35.263Z,65.28
2018-05-17T14:12:02.886Z,66.21
2018-05-17T14:14:30.507Z,66.55
2018-05-17T14:16:58.558Z,65.20
2018-05-17T14:19:26.170Z,65.43
2018-05-17T14:21:53.770Z,65.72
2018-05-17T14:24:21.416Z,65.71
2018-05-17T14:26:49.093Z,66.53
2018-05-17T14:29:16.714Z,65.16
2018-05-17T14:31:44.432Z,65.41
2018-05-17T14:51:41.686Z,64.38
2018-05-17T14:54:09.327Z,64.91
2018-05-17T14:56:36.924Z,64.72
2018-05-17T14:59:04.567Z,64.99
2018-05-17T15:01:32.168Z,65.70
2018-05-17T15:03:59.855Z,66.60
2018-05-17T15:06:27.479Z,66.26
2018-05-17T15:08:55.159Z,66.74
2018-05-17T15:11:22.870Z,66.97
2018-05-17T15:13:50.396Z,66.49
2018-05-17T15:16:18.067Z,67.18
2018-05-17T15:18:45.695Z,66.82
2018-05-17T15:21:13.307Z,67.40
2018-05-17T15:23:40.935Z,66.96
2018-05-17T15:26:08.632Z,66.93
2018-05-17T15:28:36.229Z,66.19
2018-05-17T15:31:03.842Z,66.24
2018-05-17T15:33:31.490Z,66.41
2018-05-17T15:35:59.091Z,62.51
2018-05-17T15:38:26.692Z,62.14
2018-05-17T15:40:54.315Z,60.58
2018-05-17T15:43:21.924Z,61.00
2018-05-17T15:45:49.537Z,61.44
2018-05-17T15:48:17.210Z,62.09
2018-05-17T15:50:44.791Z,62.51
2018-05-17T15:53:12.950Z,62.75
2018-05-17T15:55:41.382Z,62.66
2018-05-17T15:58:08.997Z,62.95
2018-05-17T16:00:36.597Z,62.57
2018-05-17T16:03:04.469Z,62.31
2018-05-17T16:05:32.174Z,62.71
2018-05-17T16:07:59.768Z,62.23
2018-05-17T16:10:27.382Z,62.19
2018-05-17T16:12:54.982Z,62.49
2018-05-17T16:15:23.512Z,62.66
2018-05-17T16:17:50.973Z,62.56
2018-05-17T16:20:18.976Z,62.82
2018-05-17T16:22:46.569Z,62.26
2018-05-17T16:25:14.166Z,62.01
2018-05-17T16:27:41.774Z,61.73
2018-05-17T16:30:09.371Z,61.55
2018-05-17T16:32:37.078Z,61.70
2018-05-17T16:35:04.645Z,61.56
2018-05-17T16:37:32.422Z,61.51
2018-05-17T16:40:00.036Z,61.80
2018-05-17T16:42:27.674Z,61.09
2018-05-17T16:44:55.395Z,61.04
2018-05-17T16:47:22.995Z,60.30
2018-05-17T16:49:50.643Z,60.23
2018-05-17T16:52:18.242Z,59.66
2018-05-17T16:54:45.917Z,59.49
2018-05-17T16:57:13.518Z,58.96
2018-05-17T16:59:41.185Z,58.24
2018-05-17T17:02:08.806Z,58.23
2018-05-17T17:04:36.407Z,57.75
2018-05-17T17:07:04.037Z,57.64
2018-05-17T17:09:31.640Z,57.45
2018-05-17T17:11:59.418Z,57.45
2018-05-17T17:14:27.022Z,57.29
2018-05-17T17:16:54.627Z,57.36
2018-05-17T17:19:22.242Z,57.82
2018-05-17T17:21:49.838Z,57.59
2018-05-17T17:24:17.462Z,57.80
2018-05-17T17:26:45.103Z,57.90
2018-05-17T17:29:12.919Z,57.51
2018-05-17T17:31:40.518Z,57.52
2018-05-17T17:34:08.114Z,57.71
2018-05-17T17:36:35.764Z,58.05
2018-05-17T17:39:03.348Z,57.92
2018-05-17T17:41:30.968Z,57.60
2018-05-17T17:43:58.570Z,58.24
2018-05-17T17:46:26.455Z,58.02
2018-05-17T17:48:54.058Z,58.78
2018-05-17T17:51:21.675Z,58.88
2018-05-17T17:53:49.348Z,58.49
2018-05-17T17:56:16.943Z,58.25
2018-05-17T17:58:44.568Z,58.30
2018-05-17T18:01:12.243Z,58.87
2018-05-17T18:03:39.892Z,58.88
2018-05-17T18:06:07.484Z,59.18
2018-05-17T18:08:35.083Z,59.63
2018-05-17T18:11:02.712Z,58.67
2018-05-17T18:13:30.315Z,58.67
2018-05-17T18:15:57.988Z,58.53
2018-05-17T18:18:25.998Z,58.42
2018-05-17T18:20:53.625Z,58.44
2018-05-17T18:23:21.258Z,58.54
2018-05-17T18:25:48.879Z,58.55
2018-05-17T18:28:16.516Z,58.51
2018-05-17T18:30:44.114Z,58.59
2018-05-17T18:33:11.714Z,58.70
2018-05-17T18:35:39.337Z,58.79
2018-05-17T18:38:06.934Z,59.25
2018-05-17T18:40:34.554Z,59.61
2018-05-17T18:43:02.182Z,59.90
2018-05-17T18:45:30.226Z,59.73
2018-05-17T18:47:57.834Z,59.45
2018-05-17T18:50:25.437Z,58.94
2018-05-17T18:52:53.062Z,59.41
2018-05-17T18:55:22.917Z,59.43
2018-05-17T18:57:48.307Z,59.55
2018-05-17T19:00:15.984Z,59.74
2018-05-17T19:02:44.069Z,60.08
2018-05-17T19:05:11.665Z,60.26
2018-05-17T19:07:39.254Z,60.35
2018-05-17T19:10:06.880Z,60.68
2018-05-17T19:12:34.475Z,60.19
2018-05-17T19:15:02.120Z,60.54
2018-05-17T19:17:29.827Z,60.92
2018-05-17T19:19:57.575Z,61.23
2018-05-17T19:22:25.167Z,61.11
2018-05-17T19:24:52.762Z,61.19
2018-05-17T19:27:20.381Z,61.14
2018-05-17T19:29:47.991Z,60.77
2018-05-17T19:32:15.611Z,60.87
2018-05-17T19:34:43.368Z,60.95
2018-05-17T19:37:11.373Z,61.31
2018-05-17T19:39:38.906Z,61.35
2018-05-17T19:42:06.502Z,61.51
2018-05-17T19:44:34.122Z,61.80
2018-05-17T19:47:01.720Z,61.92
2018-05-17T19:49:29.352Z,62.37
2018-05-17T19:51:56.948Z,62.43
2018-05-17T19:54:24.813Z,62.77
2018-05-17T19:56:52.427Z,63.70
2018-05-17T19:59:20.160Z,63.49
2018-05-17T20:01:47.727Z,64.09
2018-05-17T20:04:15.335Z,64.40
2018-05-17T20:06:42.948Z,64.46
2018-05-17T20:09:10.570Z,64.88
2018-05-17T20:11:38.459Z,65.03
2018-05-17T20:14:06.071Z,65.49
2018-05-17T20:16:33.670Z,66.06
2018-05-17T20:19:01.308Z,66.12
2018-05-17T20:21:28.908Z,65.86
2018-05-17T20:23:56.557Z,65.83
2018-05-17T20:26:24.158Z,65.63
2018-05-17T20:28:51.802Z,66.39
2018-05-17T20:31:19.400Z,66.80
2018-05-17T20:33:46.996Z,67.82
2018-05-17T20:36:14.626Z,68.00
2018-05-17T20:38:42.240Z,68.94
2018-05-17T20:41:09.859Z,69.73
2018-05-17T20:43:37.800Z,69.96
2018-05-17T20:46:05.949Z,70.27
2018-05-17T20:48:33.553Z,71.08
2018-05-17T20:51:01.150Z,70.55
2018-05-17T20:53:28.817Z,71.25
2018-05-17T20:55:56.410Z,71.19
2018-05-17T20:58:24.051Z,71.92
2018-05-17T21:00:51.648Z,72.20
2018-05-17T21:03:19.330Z,73.30
2018-05-17T21:05:46.930Z,72.86
2018-05-17T21:08:14.536Z,72.56
2018-05-17T21:10:42.149Z,72.30
2018-05-17T21:13:09.929Z,73.34
2018-05-17T21:15:37.564Z,73.12
2018-05-17T21:18:05.175Z,73.65
2018-05-17T21:20:33.016Z,73.83
2018-05-17T21:23:00.668Z,73.78
2018-05-17T21:25:28.262Z,73.50
2018-05-17T21:27:55.883Z,73.86
2018-05-17T21:30:23.497Z,74.23
2018-05-17T21:32:51.135Z,74.95
2018-05-17T21:35:18.840Z,74.53
2018-05-17T21:37:46.440Z,74.25
2018-05-17T21:40:14.079Z,75.05
2018-05-17T21:42:41.682Z,74.94
2018-05-17T21:45:09.526Z,75.56
2018-05-17T21:47:37.119Z,75.39
2018-05-17T21:50:04.783Z,75.20
2018-05-17T21:52:32.695Z,74.80
2018-05-17T21:55:00.445Z,75.16
2018-05-17T21:57:28.068Z,74.98
2018-05-17T21:59:55.666Z,75.46
2018-05-17T22:02:23.341Z,75.90
2018-05-17T22:04:50.930Z,75.08
2018-05-17T22:07:18.527Z,75.48
2018-05-17T22:09:46.152Z,75.82
2018-05-17T22:12:13.819Z,75.95
2018-05-17T22:14:41.440Z,75.88
2018-05-17T22:17:09.031Z,75.65
2018-05-17T22:19:36.930Z,75.79
2018-05-17T22:22:04.523Z,75.47
2018-05-17T22:24:32.111Z,75.63
2018-05-17T22:26:59.724Z,75.92
2018-05-17T22:29:27.321Z,76.23
2018-05-17T22:31:54.971Z,76.50
2018-05-17T22:34:22.561Z,75.47
2018-05-17T22:36:50.220Z,75.94
2018-05-17T22:39:17.816Z,75.92
2018-05-17T22:41:45.418Z,74.84
2018-05-17T22:44:13.048Z,74.87
2018-05-17T22:46:40.646Z,75.69
2018-05-17T22:49:08.267Z,75.93
2018-05-17T22:51:35.870Z,74.27
2018-05-17T22:54:03.543Z,74.55
2018-05-17T22:56:42.926Z,74.97
2018-05-17T22:59:10.809Z,75.73
2018-05-17T23:01:38.382Z,75.37
2018-05-17T23:04:05.985Z,74.90
2018-05-17T23:06:33.615Z,75.28
2018-05-17T23:09:01.216Z,74.48
2018-05-17T23:11:28.891Z,75.34
2018-05-17T23:13:56.466Z,76.08
2018-05-17T23:16:24.124Z,75.22
2018-05-17T23:18:52.007Z,74.75
2018-05-17T23:21:19.603Z,75.02
2018-05-17T23:23:47.231Z,74.90
2018-05-17T23:26:14.851Z,75.17
2018-05-17T23:28:42.475Z,75.08
2018-05-17T23:31:10.088Z,75.09
2018-05-17T23:33:38.151Z,74.82
2018-05-17T23:36:05.747Z,74.89
2018-05-17T23:38:33.342Z,75.12
2018-05-17T23:41:12.710Z,75.37
2018-05-17T23:43:40.298Z,75.78
2018-05-17T23:46:07.915Z,75.13
2018-05-17T23:48:35.512Z,75.65
2018-05-17T23:51:03.358Z,76.25
2018-05-17T23:53:30.954Z,75.64
2018-05-17T23:55:58.554Z,76.11
2018-05-17T23:58:26.170Z,76.09
